Time;durP1;ratioP1;P1;durP2;ratioP2;P2;SDS_P1;SDS_P2;PMS_P1;PMS_P2;Temp;Humidity;BMP_temperature;BMP_pressure;BME280_temperature;BME280_humidity;BME280_pressure;Samples;Min_cycle;Max_cycle;Signal;HPM_P1;HPM_P2
2021/11/28 00:02:22;;;;;;;0.90;0.70;;;20.30;50.10;;;;;;4946107;29;20038;-42
2021/11/28 00:04:49;;;;;;;0.82;0.60;;;20.30;50.20;;;;;;4944695;29;20023;-41
2021/11/28 00:15:11;;;;;;;1.10;0.70;;;20.30;50.60;;;;;;4945761;29;20032;-41
2021/11/28 00:17:37;;;;;;;0.82;0.60;;;20.40;50.60;;;;;;4945859;29;20028;-41
2021/11/28 00:20:04;;;;;;;0.90;0.60;;;20.30;50.30;;;;;;4945416;29;20128;-40
2021/11/28 00:22:30;;;;;;;1.15;0.77;;;20.30;50.30;;;;;;4945411;29;20813;-40
2021/11/28 00:24:56;;;;;;;1.35;0.60;;;20.20;50.20;;;;;;4945619;29;20110;-41
2021/11/28 00:27:22;;;;;;;0.77;0.55;;;20.30;50.30;;;;;;4945484;29;20079;-41
2021/11/28 00:29:49;;;;;;;1.60;0.80;;;20.20;50.20;;;;;;4945777;29;20456;-41
2021/11/28 00:32:15;;;;;;;1.85;0.85;;;20.20;50.30;;;;;;4945606;29;20043;-47
2021/11/28 00:34:41;;;;;;;1.42;0.80;;;20.20;50.50;;;;;;4945210;29;20082;-41
2021/11/28 00:37:10;;;;;;;1.00;0.68;;;20.30;50.70;;;;;;4945397;29;20043;-41
2021/11/28 00:39:37;;;;;;;1.00;0.60;;;20.30;50.70;;;;;;4945582;29;20036;-43
2021/11/28 00:42:06;;;;;;;1.20;0.63;;;20.30;50.40;;;;;;4943936;29;20098;-42
2021/11/28 00:44:32;;;;;;;0.85;0.70;;;20.30;50.40;;;;;;4926315;29;20028;-41
2021/11/28 00:46:58;;;;;;;1.30;0.80;;;20.20;50.30;;;;;;4926490;29;20032;-41
2021/11/28 00:49:26;;;;;;;1.25;0.82;;;20.20;50.30;;;;;;4934191;29;20043;-43
2021/11/28 00:54:19;;;;;;;1.40;0.73;;;20.20;51.20;;;;;;4945290;29;20028;-41
2021/11/28 00:56:45;;;;;;;1.00;0.70;;;20.30;50.80;;;;;;4945068;29;20091;-41
2021/11/28 00:59:11;;;;;;;0.98;0.88;;;20.30;50.70;;;;;;4944928;29;20113;-41
2021/11/28 01:01:37;;;;;;;0.70;0.68;;;20.30;50.50;;;;;;4945102;29;20812;-41
2021/11/28 01:04:04;;;;;;;1.30;0.80;;;20.30;50.50;;;;;;4945008;29;20039;-41
2021/11/28 01:06:30;;;;;;;1.48;0.80;;;20.20;50.40;;;;;;4944734;29;20027;-42
2021/11/28 01:08:56;;;;;;;0.95;0.80;;;20.20;50.50;;;;;;4945289;29;20429;-42
2021/11/28 01:11:23;;;;;;;0.82;0.70;;;20.20;50.40;;;;;;4945112;29;20031;-41
2021/11/28 01:13:52;;;;;;;1.42;0.80;;;20.20;50.60;;;;;;4945113;29;20091;-41
2021/11/28 01:16:19;;;;;;;1.50;0.80;;;20.30;50.80;;;;;;4945913;29;20042;-42
2021/11/28 01:18:46;;;;;;;1.77;0.98;;;20.30;50.80;;;;;;4948872;29;20035;-42
2021/11/28 01:21:12;;;;;;;1.42;0.82;;;20.30;50.70;;;;;;4948648;29;20055;-44
2021/11/28 01:23:38;;;;;;;1.58;0.80;;;20.30;50.60;;;;;;4949204;29;20101;-41
2021/11/28 01:26:04;;;;;;;1.45;0.90;;;20.20;50.50;;;;;;4948580;29;20044;-41
2021/11/28 01:28:31;;;;;;;1.00;0.75;;;20.20;50.50;;;;;;4949004;29;20249;-41
2021/11/28 01:30:57;;;;;;;0.95;0.63;;;20.10;50.40;;;;;;4948976;29;20027;-41
2021/11/28 01:33:23;;;;;;;1.15;0.80;;;20.20;50.70;;;;;;4948789;29;20039;-41
2021/11/28 01:35:49;;;;;;;1.40;0.90;;;20.30;50.80;;;;;;4948450;29;20060;-41
2021/11/28 01:38:19;;;;;;;0.95;0.60;;;20.30;50.90;;;;;;4948945;29;20024;-42
2021/11/28 01:40:46;;;;;;;1.75;1.20;;;20.30;50.80;;;;;;4948673;29;20048;-41
2021/11/28 01:43:13;;;;;;;1.45;0.93;;;20.30;50.60;;;;;;4948757;29;20028;-41
2021/11/28 01:45:39;;;;;;;1.63;0.90;;;20.20;50.60;;;;;;4948428;29;20027;-42
2021/11/28 01:48:07;;;;;;;1.55;0.90;;;20.20;50.60;;;;;;4948561;29;20027;-41
2021/11/28 01:50:34;;;;;;;1.33;0.77;;;20.10;50.50;;;;;;4948504;29;20031;-41
2021/11/28 01:53:01;;;;;;;1.27;0.90;;;20.20;50.80;;;;;;4948362;29;20028;-41
2021/11/28 01:55:28;;;;;;;1.00;0.70;;;20.20;50.90;;;;;;4947539;29;20082;-41
2021/11/28 01:57:54;;;;;;;;;;;20.30;51.00;;;;;;4948443;29;20035;-41
2021/11/28 02:00:23;;;;;;;1.25;0.95;;;20.30;50.80;;;;;;4948086;29;19919;-41
2021/11/28 02:02:49;;;;;;;1.73;1.10;;;20.20;50.60;;;;;;4948160;29;20024;-41
2021/11/28 02:05:15;;;;;;;1.20;0.90;;;20.20;50.70;;;;;;4948143;29;20118;-41
2021/11/28 02:07:42;;;;;;;1.23;0.80;;;20.10;50.60;;;;;;4947844;29;20055;-41
2021/11/28 02:10:09;;;;;;;1.00;0.80;;;20.10;50.70;;;;;;4948204;29;20095;-43
2021/11/28 02:12:35;;;;;;;2.38;0.75;;;20.10;50.90;;;;;;4931128;29;20035;-42
2021/11/28 02:15:01;;;;;;;1.25;1.00;;;20.30;51.10;;;;;;4930954;29;20446;-42
2021/11/28 02:17:28;;;;;;;1.67;1.00;;;20.30;51.10;;;;;;4947564;29;20075;-41
2021/11/28 02:19:54;;;;;;;2.13;1.10;;;20.30;51.00;;;;;;4947754;29;20044;-41
2021/11/28 02:22:20;;;;;;;1.40;0.90;;;20.30;50.70;;;;;;4947831;29;20031;-41
2021/11/28 02:24:46;;;;;;;1.33;0.85;;;20.20;50.70;;;;;;4947803;29;20031;-42
2021/11/28 02:27:12;;;;;;;1.60;1.00;;;20.10;50.80;;;;;;4930332;29;20043;-41
2021/11/28 02:29:39;;;;;;;1.95;1.13;;;20.10;50.80;;;;;;4928171;29;20036;-42
2021/11/28 02:32:06;;;;;;;1.27;0.98;;;20.10;50.90;;;;;;4928660;29;20043;-43
2021/11/28 02:34:32;;;;;;;1.70;1.17;;;20.20;51.00;;;;;;4928517;29;20040;-42
2021/11/28 02:36:58;;;;;;;1.85;0.95;;;20.30;51.10;;;;;;4928305;29;20036;-42
2021/11/28 02:39:25;;;;;;;1.60;1.00;;;20.30;51.00;;;;;;4928600;29;20032;-41
2021/11/28 02:41:51;;;;;;;2.47;1.30;;;20.20;50.80;;;;;;4928365;29;20060;-43
2021/11/28 02:44:18;;;;;;;2.35;1.23;;;20.20;50.80;;;;;;4947535;29;20032;-40
2021/11/28 02:46:44;;;;;;;1.52;1.20;;;20.10;50.80;;;;;;4947377;29;20143;-42
2021/11/28 02:49:10;;;;;;;1.38;1.05;;;20.10;50.80;;;;;;4947464;29;20023;-41
2021/11/28 02:51:37;;;;;;;2.47;1.40;;;20.10;51.00;;;;;;4947277;29;20032;-41
2021/11/28 02:54:04;;;;;;;2.67;1.10;;;20.20;51.10;;;;;;4947108;29;20032;-40
2021/11/28 02:56:30;;;;;;;;;;;20.20;51.10;;;;;;4947393;29;20043;-40
2021/11/28 02:58:56;;;;;;;1.15;1.05;;;20.30;51.00;;;;;;4946946;29;20361;-43
2021/11/28 03:01:22;;;;;;;2.92;1.30;;;20.20;50.80;;;;;;4947228;29;20042;-43
2021/11/28 03:03:52;;;;;;;1.48;1.13;;;20.20;50.80;;;;;;4947131;29;20051;-40
2021/11/28 03:06:18;;;;;;;2.35;1.60;;;20.10;50.90;;;;;;4946727;29;20032;-40
2021/11/28 03:08:44;;;;;;;2.22;1.15;;;20.10;51.00;;;;;;4946961;29;20028;-41
2021/11/28 03:11:11;;;;;;;1.80;1.50;;;20.10;51.00;;;;;;4946850;29;20043;-41
2021/11/28 03:13:40;;;;;;;1.48;1.00;;;20.20;51.10;;;;;;4947067;29;20028;-40
2021/11/28 03:16:09;;;;;;;2.15;1.33;;;20.20;51.10;;;;;;4946923;29;20034;-42
2021/11/28 03:18:35;;;;;;;1.52;1.10;;;20.20;50.90;;;;;;4946579;29;20110;-41
2021/11/28 03:21:12;;;;;;;1.48;1.08;;;20.20;50.90;;;;;;4946518;29;20063;-40
2021/11/28 03:23:38;;;;;;;1.58;1.40;;;20.10;50.80;;;;;;4946969;29;20032;-40
2021/11/28 03:26:34;;;;;;;1.60;1.15;;;20.00;50.90;;;;;;4946480;29;20042;-40
2021/11/28 03:29:11;;;;;;;2.25;1.33;;;20.10;51.10;;;;;;4946322;29;20066;-40
2021/11/28 03:31:42;;;;;;;1.40;1.30;;;20.20;51.20;;;;;;4946740;29;20055;-41
2021/11/28 03:34:09;;;;;;;2.72;1.33;;;20.30;51.10;;;;;;4946740;29;20488;-40
2021/11/28 03:36:38;;;;;;;2.13;1.30;;;20.30;51.00;;;;;;4946334;29;20158;-40
2021/11/28 03:39:06;;;;;;;2.42;1.50;;;20.20;50.90;;;;;;4946305;29;20043;-41
2021/11/28 03:41:32;;;;;;;2.08;1.40;;;20.10;50.90;;;;;;4946479;29;20047;-41
2021/11/28 03:43:59;;;;;;;2.72;1.50;;;20.00;51.50;;;;;;4946544;29;20062;-40
2021/11/28 03:46:27;;;;;;;2.07;1.30;;;20.10;51.10;;;;;;4946494;29;20039;-42
2021/11/28 03:48:53;;;;;;;2.30;1.55;;;20.20;51.10;;;;;;4945789;29;20032;-41
2021/11/28 03:51:19;;;;;;;1.63;1.20;;;20.20;51.20;;;;;;4946054;29;20032;-41
2021/11/28 03:53:46;;;;;;;2.70;1.35;;;20.20;51.10;;;;;;4946133;29;20262;-40
2021/11/28 03:56:12;;;;;;;2.25;1.50;;;20.30;51.00;;;;;;4945942;29;20135;-40
2021/11/28 03:58:39;;;;;;;2.88;1.55;;;20.20;50.90;;;;;;4945883;29;20074;-41
2021/11/28 04:01:06;;;;;;;2.00;1.37;;;20.10;51.00;;;;;;4945881;29;20067;-40
2021/11/28 04:03:32;;;;;;;3.72;1.60;;;20.00;51.00;;;;;;4946136;29;20368;-40
2021/11/28 04:05:58;;;;;;;3.40;1.70;;;20.10;51.20;;;;;;4945555;29;20027;-40
2021/11/28 04:08:24;;;;;;;2.00;1.60;;;20.20;51.20;;;;;;4945591;29;20039;-42
2021/11/28 04:10:51;;;;;;;2.13;1.48;;;20.20;51.20;;;;;;4946028;29;20421;-42
2021/11/28 04:13:17;;;;;;;2.22;1.55;;;20.20;51.10;;;;;;4945932;29;20095;-40
2021/11/28 04:15:43;;;;;;;3.20;1.55;;;20.20;51.00;;;;;;4945847;29;20035;-41
2021/11/28 04:18:09;;;;;;;1.85;1.40;;;20.10;51.00;;;;;;4945672;29;20043;-40
2021/11/28 04:20:35;;;;;;;2.08;1.38;;;20.10;51.10;;;;;;4945237;29;20052;-44
2021/11/28 04:23:01;;;;;;;1.90;1.63;;;20.00;51.10;;;;;;4945650;29;20111;-41
2021/11/28 04:25:28;;;;;;;2.03;1.20;;;20.10;51.20;;;;;;4945411;29;20550;-41
2021/11/28 04:27:54;;;;;;;1.88;1.65;;;20.10;51.20;;;;;;4945427;29;20027;-42
2021/11/28 04:30:22;;;;;;;2.72;1.50;;;20.20;51.30;;;;;;4945383;29;20061;-44
2021/11/28 04:32:48;;;;;;;2.15;1.67;;;20.20;51.20;;;;;;4945666;29;20055;-41
2021/11/28 04:35:14;;;;;;;1.73;1.50;;;20.20;51.10;;;;;;4945431;29;20055;-40
2021/11/28 04:37:40;;;;;;;1.90;1.35;;;20.20;51.10;;;;;;4945229;29;20058;-41
2021/11/28 04:40:07;;;;;;;2.17;1.60;;;20.10;51.10;;;;;;4945248;29;20023;-41
2021/11/28 04:42:34;;;;;;;2.30;1.50;;;20.10;51.20;;;;;;4945271;29;20040;-41
2021/11/28 04:45:00;;;;;;;2.58;1.50;;;20.10;51.20;;;;;;4945564;29;20031;-41
2021/11/28 04:47:26;;;;;;;2.13;1.70;;;20.20;51.30;;;;;;4943898;29;20027;-41
2021/11/28 04:49:52;;;;;;;2.05;1.60;;;20.30;51.30;;;;;;4944977;29;20062;-41
2021/11/28 04:52:18;;;;;;;2.90;1.60;;;20.30;51.20;;;;;;4944772;29;20445;-41
2021/11/28 04:54:44;;;;;;;2.47;1.70;;;20.20;51.10;;;;;;4944786;29;20031;-41
2021/11/28 04:57:10;;;;;;;1.73;1.50;;;20.10;51.10;;;;;;4944879;29;20042;-41
2021/11/28 04:59:36;;;;;;;2.28;1.60;;;20.00;51.20;;;;;;4944938;29;20031;-42
2021/11/28 05:02:02;;;;;;;1.55;1.30;;;20.10;51.30;;;;;;4945019;29;20036;-41
2021/11/28 05:04:29;;;;;;;2.35;1.65;;;20.20;51.40;;;;;;4945239;29;20055;-42
2021/11/28 05:06:55;;;;;;;2.10;1.48;;;20.20;51.30;;;;;;4944765;29;20034;-42
2021/11/28 05:09:22;;;;;;;3.85;1.58;;;20.20;51.10;;;;;;4943671;29;20024;-42
2021/11/28 05:11:48;;;;;;;2.08;1.50;;;20.20;51.10;;;;;;4944996;29;20039;-41
2021/11/28 05:14:14;;;;;;;2.08;1.48;;;20.10;51.20;;;;;;4945021;29;20043;-42
2021/11/28 05:16:41;;;;;;;1.85;1.38;;;20.00;51.20;;;;;;4945082;29;20023;-41
2021/11/28 05:19:08;;;;;;;2.53;1.60;;;20.00;51.30;;;;;;4944801;29;20046;-41
2021/11/28 05:21:35;;;;;;;2.63;1.77;;;20.10;51.40;;;;;;4944212;29;20055;-43
2021/11/28 05:24:01;;;;;;;2.72;1.60;;;20.20;51.40;;;;;;4945118;29;20393;-41
2021/11/28 05:26:27;;;;;;;1.88;1.48;;;20.20;51.40;;;;;;4944795;29;20039;-42
2021/11/28 05:28:53;;;;;;;2.08;1.42;;;20.30;51.30;;;;;;4944755;29;20028;-41
2021/11/28 05:31:19;;;;;;;2.47;1.70;;;20.20;51.10;;;;;;4944362;29;20725;-41
2021/11/28 05:33:46;;;;;;;2.05;1.50;;;20.10;51.20;;;;;;4944812;29;20043;-41
2021/11/28 05:36:12;;;;;;;2.10;1.60;;;20.00;51.20;;;;;;4944842;29;20042;-42
2021/11/28 05:38:39;;;;;;;2.65;1.60;;;20.00;51.30;;;;;;4944845;29;20063;-42
2021/11/28 05:41:05;;;;;;;2.53;1.42;;;20.10;51.40;;;;;;4944492;29;20493;-43
2021/11/28 05:43:32;;;;;;;1.65;1.30;;;20.20;51.40;;;;;;4944599;29;20032;-41
2021/11/28 05:45:58;;;;;;;1.63;1.03;;;20.20;51.30;;;;;;4944667;29;20043;-42
2021/11/28 05:48:24;;;;;;;2.97;1.40;;;20.20;51.10;;;;;;4944633;29;20259;-42
2021/11/28 05:50:50;;;;;;;1.63;1.42;;;20.10;51.10;;;;;;4944486;29;20036;-41
2021/11/28 05:53:16;;;;;;;1.90;1.63;;;20.00;51.20;;;;;;4944455;29;20489;-43
2021/11/28 05:55:43;;;;;;;1.88;1.30;;;20.00;51.30;;;;;;4944349;29;20043;-41
2021/11/28 05:58:09;;;;;;;2.70;1.60;;;20.10;51.30;;;;;;4944538;29;20030;-41
2021/11/28 06:00:36;;;;;;;2.40;1.65;;;20.20;51.40;;;;;;4944038;29;20048;-43
2021/11/28 06:03:02;;;;;;;1.67;1.10;;;20.20;51.40;;;;;;4945356;29;20074;-41
2021/11/28 06:05:28;;;;;;;2.08;1.60;;;20.20;51.20;;;;;;4948030;29;20099;-41
2021/11/28 06:07:54;;;;;;;2.03;1.50;;;20.10;51.20;;;;;;4947915;29;20024;-41
2021/11/28 06:10:20;;;;;;;2.45;1.60;;;20.00;51.20;;;;;;4947997;29;20031;-42
2021/11/28 06:12:47;;;;;;;1.80;1.50;;;20.00;51.40;;;;;;4947923;29;20042;-41
2021/11/28 06:15:13;;;;;;;2.13;1.50;;;20.10;51.40;;;;;;4948082;29;20028;-41
2021/11/28 06:17:39;;;;;;;1.60;1.35;;;20.20;51.50;;;;;;4947654;29;20082;-42
2021/11/28 06:20:06;;;;;;;2.25;1.60;;;20.20;51.40;;;;;;4947627;29;20058;-41
2021/11/28 06:22:32;;;;;;;1.88;1.50;;;20.20;51.20;;;;;;4947586;29;20026;-41
2021/11/28 06:24:58;;;;;;;2.70;1.50;;;20.10;51.10;;;;;;4947693;29;20039;-42
2021/11/28 06:27:24;;;;;;;2.22;1.27;;;20.10;51.30;;;;;;4947846;29;20023;-41
2021/11/28 06:29:50;;;;;;;2.92;1.90;;;20.00;51.30;;;;;;4947792;29;20059;-41
2021/11/28 06:32:17;;;;;;;2.10;1.30;;;20.00;51.40;;;;;;4947296;29;20023;-41
2021/11/28 06:34:43;;;;;;;1.92;1.30;;;20.10;51.40;;;;;;4947710;29;20046;-42
2021/11/28 06:37:09;;;;;;;1.80;1.53;;;20.20;51.50;;;;;;4947489;29;20028;-41
2021/11/28 06:39:35;;;;;;;2.95;1.58;;;20.20;51.40;;;;;;4947430;29;20038;-42
2021/11/28 06:42:01;;;;;;;1.88;1.52;;;20.20;51.20;;;;;;4945867;29;20044;-41
2021/11/28 06:44:28;;;;;;;2.72;1.70;;;20.10;51.20;;;;;;4928481;29;20028;-41
2021/11/28 06:46:54;;;;;;;2.83;1.58;;;20.00;51.30;;;;;;4928371;29;20028;-41
2021/11/28 06:49:20;;;;;;;2.38;1.60;;;20.00;51.40;;;;;;4935485;29;20058;-41
2021/11/28 06:51:46;;;;;;;2.00;1.60;;;20.10;51.30;;;;;;4929745;29;20031;-41
2021/11/28 06:54:12;;;;;;;1.73;1.50;;;20.20;51.40;;;;;;4947369;29;20135;-41
2021/11/28 06:56:38;;;;;;;1.95;1.40;;;20.20;51.40;;;;;;4934761;29;20062;-40
2021/11/28 06:59:04;;;;;;;2.22;1.60;;;20.30;51.30;;;;;;4942332;29;20024;-41
2021/11/28 07:01:30;;;;;;;2.67;1.77;;;20.20;51.20;;;;;;4947434;29;20158;-41
2021/11/28 07:03:56;;;;;;;2.17;1.48;;;20.10;51.20;;;;;;4947409;29;20027;-42
2021/11/28 07:06:22;;;;;;;1.90;1.50;;;20.00;51.30;;;;;;4946949;29;20032;-41
2021/11/28 07:08:48;;;;;;;2.22;1.58;;;20.00;51.40;;;;;;4946474;29;21234;-43
2021/11/28 07:11:15;;;;;;;2.80;1.65;;;20.10;51.40;;;;;;4947022;29;20062;-41
2021/11/28 07:13:41;;;;;;;2.03;1.52;;;20.20;51.50;;;;;;4946385;29;20028;-41
2021/11/28 07:16:07;;;;;;;2.03;1.48;;;20.20;51.40;;;;;;4946949;29;20706;-41
2021/11/28 07:18:33;;;;;;;1.90;1.33;;;20.20;51.20;;;;;;4945848;29;20036;-42
2021/11/28 07:20:59;;;;;;;1.98;1.40;;;20.20;51.20;;;;;;4927679;29;20056;-41
2021/11/28 07:23:25;;;;;;;2.22;1.45;;;20.00;51.20;;;;;;4927510;29;20084;-41
2021/11/28 07:25:51;;;;;;;1.88;1.40;;;20.00;51.30;;;;;;4935685;29;20060;-41
2021/11/28 07:28:17;;;;;;;3.40;1.73;;;20.00;51.40;;;;;;4946701;29;20027;-42
2021/11/28 07:30:49;;;;;;;1.95;1.42;;;20.10;51.40;;;;;;4946438;29;20027;-41
2021/11/28 07:33:15;;;;;;;1.92;1.38;;;20.20;51.50;;;;;;4946455;29;20059;-40
2021/11/28 07:35:41;;;;;;;2.17;1.50;;;20.20;51.40;;;;;;4946340;29;20036;-41
2021/11/28 07:38:07;;;;;;;2.65;1.67;;;20.20;51.20;;;;;;4946416;29;20276;-43
2021/11/28 07:40:34;;;;;;;2.15;1.58;;;20.20;51.20;;;;;;4946445;29;20480;-41
2021/11/28 07:43:00;;;;;;;2.15;1.67;;;20.10;51.20;;;;;;4946285;29;20434;-43
2021/11/28 07:45:26;;;;;;;2.00;1.50;;;20.00;51.30;;;;;;4946424;29;20064;-40
2021/11/28 07:47:52;;;;;;;2.08;1.55;;;20.10;51.40;;;;;;4946277;29;20055;-42
2021/11/28 07:50:18;;;;;;;2.10;1.48;;;20.20;51.40;;;;;;4931451;29;20031;-41
2021/11/28 07:52:44;;;;;;;1.83;1.45;;;20.20;51.40;;;;;;4926969;29;20032;-41
2021/11/28 07:55:10;;;;;;;1.50;1.27;;;20.20;51.20;;;;;;4929100;29;20028;-40
2021/11/28 07:57:36;;;;;;;2.55;1.60;;;20.20;51.20;;;;;;4946106;29;20039;-41
2021/11/28 08:00:04;;;;;;;1.85;1.23;;;20.10;51.20;;;;;;4945948;29;20035;-41
2021/11/28 08:02:30;;;;;;;2.40;1.60;;;20.00;51.30;;;;;;4945873;29;20035;-41
2021/11/28 08:04:56;;;;;;;1.73;1.23;;;20.10;52.00;;;;;;4945684;29;20035;-41
2021/11/28 08:07:22;;;;;;;2.33;1.50;;;20.20;51.50;;;;;;4945950;29;20040;-42
2021/11/28 08:09:49;;;;;;;2.05;1.48;;;20.20;51.40;;;;;;4945755;29;20460;-42
2021/11/28 08:12:15;;;;;;;2.85;1.77;;;20.20;51.20;;;;;;4945754;29;20036;-41
2021/11/28 08:14:41;;;;;;;2.22;1.48;;;20.20;51.10;;;;;;4945716;29;20039;-42
2021/11/28 08:17:07;;;;;;;2.03;1.50;;;20.10;51.20;;;;;;4945480;29;20047;-44
2021/11/28 08:19:33;;;;;;;2.40;1.60;;;20.00;51.30;;;;;;4945764;29;20031;-43
2021/11/28 08:21:59;;;;;;;2.30;1.50;;;20.10;51.40;;;;;;4945607;29;20074;-41
2021/11/28 08:24:26;;;;;;;3.03;1.38;;;20.20;51.40;;;;;;4945458;29;20050;-40
2021/11/28 08:26:52;;;;;;;1.92;1.52;;;20.20;51.30;;;;;;4930594;29;20040;-42
2021/11/28 08:29:18;;;;;;;2.38;1.60;;;20.20;51.10;;;;;;4926480;29;20063;-41
2021/11/28 08:31:46;;;;;;;2.10;1.40;;;20.10;51.00;;;;;;4926616;29;20113;-41
2021/11/28 08:34:12;;;;;;;3.08;1.50;;;20.00;51.10;;;;;;4926250;29;20032;-43
2021/11/28 08:36:39;;;;;;;2.40;1.50;;;20.00;51.20;;;;;;4926633;29;20036;-41
2021/11/28 08:39:05;;;;;;;2.72;1.70;;;20.10;51.30;;;;;;4926222;29;20040;-40
2021/11/28 08:41:31;;;;;;;2.25;1.55;;;20.20;51.40;;;;;;4926267;29;20036;-42
2021/11/28 08:43:57;;;;;;;2.10;1.60;;;20.30;51.40;;;;;;4942579;29;20087;-41
2021/11/28 08:46:24;;;;;;;1.77;1.35;;;20.20;51.20;;;;;;4945423;29;20038;-41
2021/11/28 08:48:53;;;;;;;1.60;1.50;;;20.20;51.10;;;;;;4941900;29;20087;-41
2021/11/28 08:51:20;;;;;;;1.90;1.42;;;20.10;51.20;;;;;;4926504;29;20044;-41
2021/11/28 08:53:46;;;;;;;;;;;20.00;51.30;;;;;;4926494;29;20406;-41
2021/11/28 08:56:12;;;;;;;1.35;1.20;;;20.10;51.30;;;;;;4936351;29;19938;-41
2021/11/28 08:58:39;;;;;;;1.77;1.50;;;20.20;51.40;;;;;;4944891;29;20460;-41
2021/11/28 09:01:05;;;;;;;2.25;1.50;;;20.20;51.40;;;;;;4945032;29;20039;-43
2021/11/28 09:03:31;;;;;;;2.05;1.40;;;20.20;51.20;;;;;;4945199;29;20043;-41
2021/11/28 09:05:58;;;;;;;1.98;1.30;;;20.10;51.10;;;;;;4944924;29;20031;-41
2021/11/28 09:08:24;;;;;;;2.88;1.38;;;20.10;51.20;;;;;;4945098;29;20126;-41
2021/11/28 09:10:50;;;;;;;1.10;0.97;;;20.00;51.30;;;;;;4945066;29;20031;-41
2021/11/28 09:13:16;;;;;;;2.45;1.42;;;20.10;51.40;;;;;;4944810;29;20088;-41
2021/11/28 09:15:43;;;;;;;2.30;1.58;;;20.20;51.40;;;;;;4944836;29;20032;-41
2021/11/28 09:18:14;;;;;;;1.77;1.40;;;20.30;51.40;;;;;;4945283;29;20046;-41
2021/11/28 09:20:44;;;;;;;2.10;1.33;;;20.20;51.10;;;;;;4944710;29;20086;-41
2021/11/28 09:25:37;;;;;;;1.73;1.27;;;20.00;51.20;;;;;;4940249;29;20036;-41
2021/11/28 09:28:05;;;;;;;2.22;1.63;;;20.10;51.40;;;;;;4925940;29;20048;-41
2021/11/28 09:30:32;;;;;;;2.58;1.20;;;20.20;51.40;;;;;;4925977;29;20024;-41
2021/11/28 09:32:58;;;;;;;2.25;1.60;;;20.20;51.40;;;;;;4925766;29;20040;-41
2021/11/28 09:35:24;;;;;;;1.63;1.30;;;20.20;51.30;;;;;;4925843;29;20805;-42
2021/11/28 09:37:52;;;;;;;1.55;1.40;;;20.20;51.10;;;;;;4936181;29;20056;-41
2021/11/28 09:40:18;;;;;;;;;;;20.20;51.20;;;;;;4948924;29;20036;-41
2021/11/28 09:42:55;;;;;;;2.00;1.40;;;20.10;51.30;;;;;;4948611;29;19911;-46
2021/11/28 09:45:22;;;;;;;0.95;0.88;;;20.00;51.40;;;;;;4948272;29;20050;-40
2021/11/28 09:47:48;;;;;;;1.40;1.13;;;20.10;51.40;;;;;;4948736;29;20035;-40
2021/11/28 09:50:15;;;;;;;1.60;1.20;;;20.20;51.40;;;;;;4931456;29;20028;-40
2021/11/28 09:52:41;;;;;;;1.30;1.05;;;20.30;51.40;;;;;;4948233;29;20031;-40
2021/11/28 09:55:10;;;;;;;2.15;1.10;;;20.20;51.20;;;;;;4948113;29;20098;-40
2021/11/28 09:57:36;;;;;;;1.77;1.20;;;20.10;51.20;;;;;;4948542;29;20035;-40
2021/11/28 10:00:04;;;;;;;2.15;1.50;;;20.00;51.30;;;;;;4948529;29;20040;-42
2021/11/28 10:02:30;;;;;;;;;;;20.10;51.50;;;;;;4948635;29;20616;-41
2021/11/28 10:04:58;;;;;;;1.15;1.00;;;20.10;51.40;;;;;;4948291;29;20001;-41
2021/11/28 10:07:24;;;;;;;1.50;1.30;;;20.20;51.50;;;;;;4947758;29;20028;-40
2021/11/28 10:09:50;;;;;;;1.27;1.08;;;20.30;51.50;;;;;;4948139;29;20038;-40
2021/11/28 10:12:26;;;;;;;1.88;1.30;;;20.20;51.20;;;;;;4948211;29;20031;-42
2021/11/28 10:14:54;;;;;;;1.58;1.25;;;20.20;51.30;;;;;;4948381;29;20028;-41
2021/11/28 10:17:29;;;;;;;1.80;1.35;;;20.10;51.30;;;;;;4947876;29;20513;-41
2021/11/28 10:19:59;;;;;;;1.50;1.08;;;20.00;51.40;;;;;;4947846;29;20047;-41
2021/11/28 10:22:26;;;;;;;1.05;0.95;;;20.10;51.50;;;;;;4947723;29;20043;-40
2021/11/28 10:25:04;;;;;;;1.73;1.20;;;20.20;51.50;;;;;;4948006;29;20040;-41
2021/11/28 10:27:41;;;;;;;1.55;1.17;;;20.20;51.50;;;;;;4928791;29;20131;-41
2021/11/28 10:30:09;;;;;;;1.83;1.25;;;20.20;51.20;;;;;;4929043;29;20070;-41
2021/11/28 10:32:43;;;;;;;1.85;1.40;;;20.10;51.20;;;;;;4928641;29;20032;-42
2021/11/28 10:35:11;;;;;;;1.77;1.33;;;20.00;51.30;;;;;;4928735;29;20039;-41
2021/11/28 10:37:45;;;;;;;1.70;1.25;;;20.00;51.40;;;;;;4928357;29;20055;-42
2021/11/28 10:40:12;;;;;;;1.45;1.20;;;20.10;51.40;;;;;;4928657;29;20032;-41
2021/11/28 10:42:39;;;;;;;1.65;1.20;;;20.20;51.50;;;;;;4934816;29;20146;-43
2021/11/28 10:45:11;;;;;;;1.75;1.10;;;20.20;51.40;;;;;;4947608;29;20038;-42
2021/11/28 10:47:45;;;;;;;1.42;1.10;;;20.20;51.20;;;;;;4947247;29;20421;-44
2021/11/28 10:50:27;;;;;;;1.48;1.20;;;20.20;51.20;;;;;;4946724;29;20028;-41
2021/11/28 10:53:09;;;;;;;2.17;1.30;;;20.10;51.30;;;;;;4929975;29;20095;-41
2021/11/28 10:55:36;;;;;;;1.23;1.05;;;20.10;51.50;;;;;;4942881;29;20028;-41
2021/11/28 10:58:06;;;;;;;1.48;1.17;;;20.10;51.40;;;;;;4928306;29;20032;-42
2021/11/28 11:00:34;;;;;;;1.38;1.20;;;20.20;51.50;;;;;;4928294;29;20632;-41
2021/11/28 11:03:10;;;;;;;;;;;20.20;51.30;;;;;;4928506;29;20059;-41
2021/11/28 11:05:36;;;;;;;2.25;1.20;;;20.20;51.20;;;;;;4928174;29;19935;-41
2021/11/28 11:08:03;;;;;;;1.52;1.10;;;20.10;51.20;;;;;;4935838;29;20581;-41
2021/11/28 11:10:29;;;;;;;1.42;1.08;;;20.00;51.30;;;;;;4915959;29;20028;-41
2021/11/28 11:12:57;;;;;;;1.75;1.13;;;20.00;51.50;;;;;;4947254;29;20067;-41
2021/11/28 11:15:32;;;;;;;1.50;1.20;;;20.10;51.40;;;;;;4947304;29;20828;-43
2021/11/28 11:18:00;;;;;;;1.50;1.10;;;20.20;51.40;;;;;;4946800;29;20421;-41
2021/11/28 11:20:27;;;;;;;1.45;0.75;;;20.20;51.30;;;;;;4948674;29;20060;-42
2021/11/28 11:22:53;;;;;;;;;;;20.20;51.20;;;;;;4946943;29;20063;-41
2021/11/28 11:25:20;;;;;;;1.48;1.20;;;20.10;51.20;;;;;;4943887;29;19943;-40
2021/11/28 11:27:48;;;;;;;;;;;20.00;51.30;;;;;;4928080;29;20063;-47
2021/11/28 11:30:24;;;;;;;1.15;1.02;;;20.00;51.40;;;;;;4927632;29;19911;-43
2021/11/28 11:33:01;;;;;;;1.13;0.82;;;20.10;51.40;;;;;;4926493;29;20028;-41
2021/11/28 11:35:40;;;;;;;1.42;1.08;;;20.20;51.40;;;;;;4927493;29;20036;-42
2021/11/28 11:38:11;;;;;;;1.52;1.27;;;20.20;51.30;;;;;;4927233;29;20385;-41
2021/11/28 11:40:37;;;;;;;1.90;1.10;;;20.20;51.20;;;;;;4929883;29;20042;-40
2021/11/28 11:43:04;;;;;;;1.02;0.90;;;20.10;51.10;;;;;;4946378;29;20032;-40
2021/11/28 11:45:33;;;;;;;1.40;1.13;;;20.00;51.20;;;;;;4946461;29;20125;-40
2021/11/28 11:47:59;;;;;;;1.38;1.05;;;20.00;51.40;;;;;;4946029;29;20453;-40
2021/11/28 11:50:27;;;;;;;1.80;1.30;;;20.10;51.40;;;;;;4946309;29;20032;-40
2021/11/28 11:52:54;;;;;;;1.52;1.13;;;20.20;51.40;;;;;;4946182;29;20028;-40
2021/11/28 11:55:41;;;;;;;1.50;1.13;;;20.20;51.30;;;;;;4943895;29;20058;-41
2021/11/28 11:58:35;;;;;;;1.50;1.20;;;20.20;51.10;;;;;;4926934;29;20043;-40
2021/11/28 12:01:27;;;;;;;2.22;1.00;;;20.10;51.10;;;;;;4925032;29;20051;-44
2021/11/28 12:03:54;;;;;;;1.45;0.90;;;20.00;51.30;;;;;;4926942;29;20031;-46
2021/11/28 12:06:47;;;;;;;1.42;1.00;;;20.00;51.30;;;;;;4941141;29;20032;-40
2021/11/28 12:09:23;;;;;;;2.17;1.00;;;20.20;51.30;;;;;;4945496;29;20047;-41
2021/11/28 12:11:57;;;;;;;1.35;1.02;;;20.20;51.30;;;;;;4945739;29;20027;-41
2021/11/28 12:14:23;;;;;;;1.52;0.90;;;20.20;51.10;;;;;;4926580;29;20055;-41
2021/11/28 12:16:49;;;;;;;1.10;1.00;;;20.20;51.50;;;;;;4926837;29;20036;-43
2021/11/28 12:19:51;;;;;;;1.17;1.00;;;20.00;51.10;;;;;;4932923;29;20099;-40
2021/11/28 12:22:48;;;;;;;1.65;1.20;;;20.00;51.20;;;;;;4867955;29;20487;-41
2021/11/28 12:25:51;;;;;;;1.42;1.10;;;20.10;51.20;;;;;;4867544;29;20033;-40
2021/11/28 12:28:20;;;;;;;2.03;1.10;;;20.20;51.20;;;;;;4867645;29;20038;-41
2021/11/28 12:31:01;;;;;;;1.02;0.93;;;20.20;51.10;;;;;;4867790;29;20132;-41
2021/11/28 12:33:52;;;;;;;0.90;0.80;;;20.20;51.00;;;;;;4867705;29;20034;-40
2021/11/28 12:36:33;;;;;;;1.08;0.98;;;20.10;51.10;;;;;;4867536;29;20105;-39
2021/11/28 12:39:06;;;;;;;1.38;1.05;;;20.00;51.10;;;;;;4866978;29;20029;-41
2021/11/28 12:44:12;;;;;;;1.55;1.00;;;20.20;51.20;;;;;;4867301;29;20113;-41
2021/11/28 12:46:38;;;;;;;;;;;20.20;51.20;;;;;;4868009;29;20514;-42
2021/11/28 12:49:26;;;;;;;1.35;0.85;;;20.20;51.10;;;;;;4867197;29;19916;-41
2021/11/28 12:51:53;;;;;;;1.40;1.00;;;20.10;50.90;;;;;;4867636;29;20033;-42
2021/11/28 12:54:26;;;;;;;1.35;1.00;;;20.00;51.00;;;;;;4867286;29;20068;-42
2021/11/28 12:57:20;;;;;;;1.10;0.98;;;20.00;51.10;;;;;;4910360;29;20048;-40
2021/11/28 13:00:12;;;;;;;1.30;1.05;;;20.10;51.20;;;;;;4926123;29;20032;-40
2021/11/28 13:02:43;;;;;;;1.30;0.90;;;20.20;51.30;;;;;;4924507;29;20032;-40
2021/11/28 13:05:31;;;;;;;1.52;0.85;;;20.20;51.20;;;;;;4924661;29;20028;-40
2021/11/28 13:08:06;;;;;;;1.13;0.73;;;20.20;51.00;;;;;;4925992;29;20036;-40
2021/11/28 13:10:45;;;;;;;1.48;1.00;;;20.10;51.10;;;;;;4925850;29;20044;-40